createdAt,value
2018-06-19T00:02:53.493Z,12.65
2018-06-19T00:06:54.093Z,12.95
2018-06-19T00:12:54.756Z,13.44
2018-06-19T00:16:55.310Z,13.22
2018-06-19T00:18:55.946Z,12.07
2018-06-19T00:22:56.526Z,13.37
2018-06-19T00:28:57.415Z,12.1
2018-06-19T00:32:58.045Z,11.86
2018-06-19T00:38:58.689Z,11.66
2018-06-19T00:42:59.393Z,14.83
2018-06-19T00:44:59.886Z,12.38
2018-06-19T00:49:00.522Z,14.53
2018-06-19T00:55:01.192Z,14.03
2018-06-19T00:59:01.803Z,14.07
2018-06-19T01:05:02.495Z,10.3
2018-06-19T01:11:03.116Z,13.36
2018-06-19T01:15:03.680Z,12.8
2018-06-19T01:21:04.287Z,14.07
2018-06-19T01:25:04.877Z,13.67
2018-06-19T01:31:05.505Z,13.4
2018-06-19T01:37:06.088Z,13.22
2018-06-19T01:41:06.657Z,12.21
2018-06-19T01:47:07.247Z,14.13
2018-06-19T01:51:07.863Z,11.38
2018-06-19T01:53:08.511Z,12.95
2018-06-19T01:57:09.127Z,14.35
2018-06-19T02:03:09.741Z,12.26
2018-06-19T02:07:10.592Z,13
2018-06-19T02:13:11.154Z,12.51
2018-06-19T02:17:11.726Z,12.94
2018-06-19T02:19:12.288Z,11.96
2018-06-19T02:23:12.905Z,14.44
2018-06-19T02:29:13.535Z,12.17
2018-06-19T02:33:14.086Z,14.23
2018-06-19T02:39:14.707Z,13.73
2018-06-19T02:43:15.289Z,12.74
2018-06-19T02:45:16.133Z,11.3
2018-06-19T02:49:16.929Z,12.92
2018-06-19T02:55:17.515Z,13.34
2018-06-19T02:59:18.136Z,13.63
2018-06-19T03:05:18.681Z,13.37
2018-06-19T03:11:19.346Z,11.37
2018-06-19T03:15:20.350Z,13.05
2018-06-19T03:21:20.913Z,11.88
2018-06-19T03:25:21.487Z,14.21
2018-06-19T03:31:22.048Z,12.68
2018-06-19T03:37:22.753Z,14.5
2018-06-19T03:41:23.320Z,15.31
2018-06-19T03:47:24.048Z,12.29
2018-06-19T03:51:24.484Z,13.94
2018-06-19T03:53:25.093Z,13.16
2018-06-19T03:57:25.760Z,13.96
2018-06-19T04:03:26.586Z,10.99
2018-06-19T04:07:27.198Z,11.9
2018-06-19T04:13:27.887Z,12.43
2018-06-19T04:17:28.594Z,12.59
2018-06-19T04:19:29.153Z,13.34
2018-06-19T04:23:29.912Z,13.36
2018-06-19T04:29:30.552Z,10.47
2018-06-19T04:33:31.135Z,11.71
2018-06-19T04:39:31.710Z,13.33
2018-06-19T04:43:32.340Z,13.52
2018-06-19T04:45:32.867Z,13.97
2018-06-19T04:49:33.472Z,15.22
2018-06-19T04:55:34.084Z,14.83
2018-06-19T04:59:34.986Z,14.32
2018-06-19T05:05:35.648Z,32.59
2018-06-19T05:11:36.337Z,48.34
2018-06-19T05:15:36.910Z,49.59
2018-06-19T05:21:37.604Z,30.01
2018-06-19T05:25:38.166Z,27.49
2018-06-19T05:31:38.758Z,24.92
2018-06-19T05:37:39.363Z,19.03
2018-06-19T05:41:40.010Z,18.86
2018-06-19T05:47:40.764Z,17.51
2018-06-19T05:51:41.329Z,16.6
2018-06-19T05:53:41.973Z,14.92
2018-06-19T05:57:42.514Z,16.9
2018-06-19T06:03:43.188Z,13.93
2018-06-19T06:07:43.713Z,13.06
2018-06-19T06:13:44.382Z,10.58
2018-06-19T06:17:44.950Z,13.09
2018-06-19T06:19:45.558Z,12.78
2018-06-19T06:23:46.204Z,16.66
2018-06-19T06:29:46.868Z,26.24
2018-06-19T06:33:47.419Z,31.92
2018-06-19T06:39:48.045Z,7.11
2018-06-19T06:43:48.667Z,7.19
2018-06-19T06:45:49.231Z,7.08
2018-06-19T06:49:49.793Z,8.09
2018-06-19T06:55:50.361Z,7.17
2018-06-19T06:59:51.027Z,6.15
2018-06-19T07:05:51.660Z,6.75
2018-06-19T07:11:52.319Z,6.8
2018-06-19T07:15:52.989Z,6.87
2018-06-19T07:21:53.551Z,6.68
2018-06-19T07:25:54.158Z,6.26
2018-06-19T07:31:54.876Z,7.58
2018-06-19T07:37:55.541Z,5.89
2018-06-19T07:41:56.086Z,7.03
2018-06-19T07:47:56.723Z,8.38
2018-06-19T07:51:57.432Z,9.09
2018-06-19T07:53:57.962Z,7.01
2018-06-19T07:57:58.618Z,6.89
2018-06-19T08:03:59.342Z,6.61
2018-06-19T08:07:59.998Z,7.23
2018-06-19T08:14:00.695Z,7.55
2018-06-19T08:18:01.361Z,7.56
2018-06-19T08:20:02.169Z,6.11
2018-06-19T08:24:02.747Z,6.7
2018-06-19T08:30:03.417Z,6.84
2018-06-19T08:34:07.065Z,7.83
2018-06-19T08:40:07.671Z,7.06
2018-06-19T08:44:08.317Z,6.48
2018-06-19T08:46:08.885Z,5.81
2018-06-19T08:50:09.488Z,7.49
2018-06-19T08:56:10.066Z,8.9
2018-06-19T09:00:11.319Z,7.31
2018-06-19T09:06:11.938Z,6.75
2018-06-19T09:12:12.637Z,6.76
2018-06-19T09:16:13.244Z,6.63
2018-06-19T09:22:13.882Z,6.32
2018-06-19T09:26:14.605Z,5.78
2018-06-19T09:32:15.312Z,6.03
2018-06-19T09:38:15.906Z,6.96
2018-06-19T09:42:16.708Z,5.19
2018-06-19T09:48:17.277Z,5.73
2018-06-19T09:52:17.888Z,4.98
2018-06-19T09:54:18.450Z,4.97
2018-06-19T09:58:19.142Z,5.21
2018-06-19T10:04:19.684Z,4.45
2018-06-19T10:08:20.295Z,5.73
2018-06-19T10:14:21.483Z,5.62
2018-06-19T10:18:22.173Z,6.02
2018-06-19T10:20:22.782Z,4.83
2018-06-19T10:24:23.405Z,5.28
2018-06-19T10:30:24.610Z,4.97
2018-06-19T10:34:25.257Z,5.79
2018-06-19T10:40:25.889Z,5.23
2018-06-19T10:44:26.613Z,6.07
2018-06-19T10:46:27.281Z,5.46
2018-06-19T10:50:27.931Z,6.44
2018-06-19T10:56:28.673Z,4.68
2018-06-19T11:00:29.757Z,4.49
2018-06-19T11:06:30.434Z,4.69
2018-06-19T11:12:31.189Z,6.44
2018-06-19T11:16:31.832Z,5.53
2018-06-19T11:22:32.423Z,7.16
2018-06-19T11:26:33.042Z,6.26
2018-06-19T11:32:33.649Z,5.84
2018-06-19T11:38:34.411Z,5.81
2018-06-19T11:42:35.014Z,5.45
2018-06-19T11:48:35.570Z,5.12
2018-06-19T11:52:36.135Z,5.51
2018-06-19T11:54:36.765Z,4.95
2018-06-19T11:58:37.298Z,5.93
2018-06-19T12:04:37.934Z,4.63
2018-06-19T12:08:38.587Z,5.7
2018-06-19T12:14:39.158Z,5.17
2018-06-19T12:18:39.915Z,5.23
2018-06-19T12:20:40.413Z,4.81
2018-06-19T12:24:40.994Z,4.88
2018-06-19T12:30:41.680Z,5.79
2018-06-19T12:34:42.354Z,6.34
2018-06-19T12:40:43.076Z,5.61
2018-06-19T12:46:43.781Z,4.66
2018-06-19T12:50:44.373Z,5.77
2018-06-19T12:56:44.983Z,6.34
2018-06-19T13:00:45.601Z,6.15
2018-06-19T13:06:46.203Z,7.43
2018-06-19T13:12:46.929Z,5.49
2018-06-19T13:16:47.449Z,5.99
2018-06-19T13:22:48.142Z,7.13
2018-06-19T13:26:48.700Z,7.08
2018-06-19T13:28:49.356Z,5.86
2018-06-19T13:32:49.978Z,8.37
2018-06-19T13:38:50.452Z,6.18
2018-06-19T13:42:51.120Z,6.44
2018-06-19T13:48:51.813Z,7.61
2018-06-19T13:52:52.369Z,6.64
2018-06-19T13:54:52.980Z,5.44
2018-06-19T13:58:53.551Z,6.43
2018-06-19T14:04:54.116Z,6.98
2018-06-19T14:08:54.701Z,7.78
2018-06-19T14:14:58.572Z,5.96
2018-06-19T14:18:59.219Z,6.02
2018-06-19T14:20:59.720Z,6.28
2018-06-19T14:25:00.377Z,7.93
2018-06-19T14:31:01.036Z,6.22
2018-06-19T14:35:01.543Z,7.56
2018-06-19T14:41:02.210Z,6.37
2018-06-19T14:47:02.869Z,6.43
2018-06-19T14:51:03.427Z,7.03
2018-06-19T14:57:04.042Z,5.44
2018-06-19T15:01:04.599Z,7.32
2018-06-19T15:07:05.249Z,6.46
2018-06-19T15:13:05.789Z,5.87
2018-06-19T15:17:06.498Z,7.88
2018-06-19T15:23:07.076Z,6.29
2018-06-19T15:27:07.600Z,7.37
2018-06-19T15:29:08.178Z,5.87
2018-06-19T15:33:08.840Z,6.67
2018-06-19T15:39:09.441Z,4.9
2018-06-19T15:43:09.983Z,5.77
2018-06-19T15:49:10.563Z,5.93
2018-06-19T15:53:11.145Z,5.55
2018-06-19T15:55:11.678Z,5.54
2018-06-19T15:59:12.293Z,5.77
2018-06-19T16:05:13.046Z,5.65
2018-06-19T16:09:13.616Z,5.04
2018-06-19T16:15:14.617Z,5.09
2018-06-19T16:21:15.249Z,5.34
2018-06-19T16:25:15.912Z,5.19
2018-06-19T16:31:16.430Z,3.63
2018-06-19T16:35:17.068Z,5
2018-06-19T16:41:17.643Z,5.09
2018-06-19T16:47:18.275Z,4.61
2018-06-19T16:51:18.943Z,4.95
2018-06-19T16:57:19.521Z,4.48
2018-06-19T17:01:23.323Z,4.71
2018-06-19T17:07:23.982Z,5.08
2018-06-19T17:13:24.550Z,4.76
2018-06-19T17:17:25.298Z,4.99
2018-06-19T17:23:25.944Z,3.99
2018-06-19T17:27:26.545Z,4.75
2018-06-19T17:29:27.257Z,4.54
2018-06-19T17:33:27.866Z,4.4
2018-06-19T17:39:28.514Z,4.61
2018-06-19T17:43:29.077Z,5.53
2018-06-19T17:49:29.723Z,4.42
2018-06-19T17:53:30.368Z,4.5
2018-06-19T17:55:30.996Z,4.42
2018-06-19T17:59:34.595Z,5.97
2018-06-19T18:05:35.163Z,5.11
2018-06-19T18:09:35.833Z,4.56
2018-06-19T18:15:36.616Z,4.93
2018-06-19T18:21:37.237Z,4.64
2018-06-19T18:25:37.885Z,5.67
2018-06-19T18:31:38.431Z,6.49
2018-06-19T18:35:39.421Z,6.11
2018-06-19T18:41:40.061Z,8.75
2018-06-19T18:47:40.586Z,5.31
2018-06-19T18:51:41.241Z,6.32
2018-06-19T18:57:41.891Z,6.01
2018-06-19T19:01:42.667Z,7.71
2018-06-19T19:07:43.298Z,6.04
2018-06-19T19:13:46.967Z,6
2018-06-19T19:17:47.575Z,6.97
2018-06-19T19:23:48.642Z,6.22
2018-06-19T19:27:52.261Z,7.58
2018-06-19T19:33:52.797Z,19.12
2018-06-19T19:39:53.489Z,6.99
2018-06-19T19:43:54.122Z,6.95
2018-06-19T19:49:54.756Z,6.14
2018-06-19T19:53:55.491Z,6.94
2018-06-19T19:55:55.983Z,6.55
2018-06-19T19:59:56.581Z,6.2
2018-06-19T20:05:57.517Z,5.17
2018-06-19T20:09:58.036Z,5.77
2018-06-19T20:15:58.602Z,5.63
2018-06-19T20:19:59.279Z,6.99
2018-06-19T20:21:59.834Z,6.53
2018-06-19T20:26:00.470Z,6.2
2018-06-19T20:32:01.049Z,5.94
2018-06-19T20:36:01.709Z,6.04
2018-06-19T20:42:02.156Z,5.7
2018-06-19T20:48:02.951Z,6.8
2018-06-19T20:52:03.580Z,6.96
2018-06-19T20:58:04.166Z,5.57
2018-06-19T21:02:07.814Z,6.37
2018-06-19T21:08:08.364Z,5.58
2018-06-19T21:14:09.103Z,4.35
2018-06-19T21:18:09.703Z,6.15
2018-06-19T21:24:10.777Z,5.44
2018-06-19T21:28:14.462Z,5.69
2018-06-19T21:34:15.002Z,4.97
2018-06-19T21:40:15.711Z,6.09
2018-06-19T21:44:16.255Z,6.15
2018-06-19T21:50:16.878Z,6.9
2018-06-19T21:54:17.512Z,7.08
2018-06-19T21:56:18.093Z,5.58
2018-06-19T22:00:19.166Z,6.6
2018-06-19T22:06:19.736Z,5.53
2018-06-19T22:10:20.319Z,5.44
2018-06-19T22:16:23.960Z,7.76
2018-06-19T22:20:27.711Z,6.99
2018-06-19T22:22:28.195Z,7.07
2018-06-19T22:26:28.855Z,5.49
2018-06-19T22:32:29.403Z,7.36
2018-06-19T22:36:30.194Z,6.7
2018-06-19T22:42:30.799Z,6.09
2018-06-19T22:46:31.423Z,6.44
2018-06-19T22:48:32.641Z,6.09
2018-06-19T22:52:33.294Z,6.7
2018-06-19T22:58:33.857Z,7.92
2018-06-19T23:02:34.751Z,7.01
2018-06-19T23:08:35.895Z,7.34
2018-06-19T23:12:36.964Z,7.13
2018-06-19T23:14:37.522Z,5.22
2018-06-19T23:18:38.142Z,6.28
2018-06-19T23:24:38.789Z,6.3
2018-06-19T23:28:39.576Z,6.75
2018-06-19T23:34:43.181Z,6.4
2018-06-19T23:38:43.745Z,8.2
2018-06-19T23:40:44.407Z,6.09
2018-06-19T23:44:45.016Z,6.92
2018-06-19T23:50:45.689Z,7.1
2018-06-19T23:54:46.237Z,7.98
